createdAt,value
2022-11-09T00:00:23.602Z,2.00
2022-11-09T00:05:29.041Z,2.93
2022-11-09T00:10:35.268Z,2.17
2022-11-09T00:15:40.740Z,1.90
2022-11-09T00:20:48.298Z,2.23
2022-11-09T00:25:53.273Z,2.20
2022-11-09T00:31:10.854Z,1.93
2022-11-09T00:36:16.399Z,2.57
2022-11-09T00:41:22.430Z,2.67
2022-11-09T00:46:28.352Z,2.17
2022-11-09T00:51:34.333Z,2.33
2022-11-09T00:56:40.146Z,2.57
2022-11-09T01:01:47.413Z,2.37
2022-11-09T01:06:52.917Z,2.70
2022-11-09T01:11:58.421Z,2.20
2022-11-09T01:17:04.179Z,2.03
2022-11-09T01:22:09.646Z,2.20
2022-11-09T01:27:15.379Z,2.37
2022-11-09T01:32:20.926Z,2.00
2022-11-09T01:37:26.679Z,2.30
2022-11-09T01:42:33.580Z,2.30
2022-11-09T01:47:41.287Z,2.13
2022-11-09T01:52:50.041Z,2.10
2022-11-09T01:58:04.275Z,2.10
2022-11-09T02:03:12.696Z,2.40
2022-11-09T02:08:21.571Z,2.20
2022-11-09T02:13:30.163Z,2.47
2022-11-09T02:18:37.568Z,2.30
2022-11-09T02:23:43.123Z,2.23
2022-11-09T02:28:49.296Z,2.17
2022-11-09T02:33:57.252Z,2.30
2022-11-09T02:39:03.318Z,2.23
2022-11-09T02:44:09.226Z,2.53
2022-11-09T02:49:14.687Z,1.80
2022-11-09T02:54:20.208Z,2.00
2022-11-09T02:59:26.342Z,2.20
2022-11-09T03:04:32.153Z,2.27
2022-11-09T03:09:38.273Z,1.60
2022-11-09T03:14:44.644Z,2.43
2022-11-09T03:19:50.279Z,2.07
2022-11-09T03:24:56.152Z,2.37
2022-11-09T03:30:01.988Z,1.87
2022-11-09T03:35:08.907Z,1.83
2022-11-09T03:40:15.218Z,2.20
2022-11-09T03:45:22.024Z,2.03
2022-11-09T03:50:32.154Z,2.10
2022-11-09T03:55:38.382Z,2.10
2022-11-09T04:00:44.018Z,2.10
2022-11-09T04:05:49.471Z,2.07
2022-11-09T04:10:54.869Z,2.30
2022-11-09T04:16:00.547Z,2.30
2022-11-09T04:21:06.012Z,1.93
2022-11-09T04:26:11.673Z,1.80
2022-11-09T04:31:17.057Z,1.90
2022-11-09T04:36:22.511Z,2.37
2022-11-09T04:41:29.077Z,2.07
2022-11-09T04:46:34.467Z,2.00
2022-11-09T04:51:39.854Z,2.33
2022-11-09T04:56:46.177Z,1.70
2022-11-09T05:01:51.710Z,1.87
2022-11-09T05:06:57.147Z,2.00
2022-11-09T05:12:02.635Z,1.90
2022-11-09T05:17:08.951Z,2.63
2022-11-09T05:22:32.012Z,2.20
2022-11-09T05:27:39.054Z,2.23
2022-11-09T05:32:44.478Z,2.10
2022-11-09T05:37:50.873Z,1.93
2022-11-09T05:42:56.868Z,2.03
2022-11-09T05:48:04.722Z,2.00
2022-11-09T05:53:11.852Z,1.80
2022-11-09T05:58:18.327Z,1.93
2022-11-09T06:03:23.761Z,2.37
2022-11-09T06:08:29.435Z,1.93
2022-11-09T06:13:35.562Z,1.80
2022-11-09T06:18:41.000Z,1.87
2022-11-09T06:23:46.481Z,1.73
2022-11-09T06:28:51.961Z,2.17
2022-11-09T06:33:57.514Z,1.97
2022-11-09T06:39:02.919Z,1.83
2022-11-09T06:44:08.438Z,1.80
2022-11-09T06:49:13.827Z,1.90
2022-11-09T06:54:19.230Z,2.10
2022-11-09T06:59:24.699Z,2.03
2022-11-09T07:04:30.574Z,2.20
2022-11-09T07:09:36.043Z,1.80
2022-11-09T07:14:41.423Z,2.03
2022-11-09T07:19:47.544Z,1.97
2022-11-09T07:24:52.933Z,1.70
2022-11-09T07:29:58.336Z,2.27
2022-11-09T07:35:04.572Z,2.03
2022-11-09T07:40:11.220Z,2.10
2022-11-09T07:45:16.745Z,1.93
2022-11-09T07:50:22.141Z,2.13
2022-11-09T07:55:28.949Z,1.80
2022-11-09T08:00:37.224Z,1.70
2022-11-09T08:05:42.830Z,1.80
2022-11-09T08:10:49.913Z,1.80
2022-11-09T08:15:55.393Z,1.80
2022-11-09T08:21:03.489Z,1.80
2022-11-09T08:26:09.168Z,1.90
2022-11-09T08:31:14.716Z,1.97
2022-11-09T08:36:20.352Z,2.23
2022-11-09T08:41:25.837Z,2.07
2022-11-09T08:46:31.460Z,1.97
2022-11-09T08:51:36.849Z,2.10
2022-11-09T08:56:42.392Z,2.10
2022-11-09T09:01:47.868Z,1.90
2022-11-09T09:06:54.285Z,2.10
2022-11-09T09:12:00.274Z,2.20
2022-11-09T09:17:06.127Z,1.90
2022-11-09T09:22:11.516Z,2.00
2022-11-09T09:27:16.966Z,1.80
2022-11-09T09:32:22.368Z,1.83
2022-11-09T09:37:27.761Z,1.77
2022-11-09T09:42:38.876Z,2.10
2022-11-09T09:48:08.297Z,2.13
2022-11-09T09:53:25.151Z,2.00
2022-11-09T09:58:29.317Z,2.57
2022-11-09T10:03:34.703Z,2.30
2022-11-09T10:08:52.157Z,2.50
2022-11-09T10:14:03.605Z,2.87
2022-11-09T10:19:30.179Z,2.80
2022-11-09T10:24:58.704Z,2.80
2022-11-09T10:29:51.398Z,2.63
2022-11-09T10:34:59.912Z,3.10
2022-11-09T10:40:10.928Z,2.83
2022-11-09T10:45:37.675Z,2.90
2022-11-09T10:51:01.092Z,2.70
2022-11-09T10:56:25.215Z,3.43
2022-11-09T11:01:50.046Z,3.00
2022-11-09T11:07:22.918Z,3.10
2022-11-09T11:12:49.247Z,3.33
2022-11-09T11:18:23.141Z,3.53
2022-11-09T11:23:48.133Z,4.00
2022-11-09T11:29:37.689Z,3.40
2022-11-09T11:35:02.024Z,3.33
2022-11-09T11:40:37.845Z,3.70
2022-11-09T11:46:13.550Z,3.23
2022-11-09T11:51:48.861Z,3.70
2022-11-09T11:57:24.033Z,3.33
2022-11-09T12:03:09.411Z,3.13
2022-11-09T12:08:49.566Z,3.20
2022-11-09T12:14:30.619Z,2.80
2022-11-09T12:19:56.801Z,3.10
2022-11-09T12:25:56.601Z,2.93
2022-11-09T12:31:47.692Z,2.97
2022-11-09T12:37:17.046Z,3.43
2022-11-09T12:42:46.747Z,2.50
2022-11-09T12:48:24.794Z,2.67
2022-11-09T12:53:48.116Z,3.00
2022-11-09T12:59:29.671Z,2.30
2022-11-09T13:05:01.703Z,2.20
2022-11-09T13:10:37.595Z,2.20
2022-11-09T13:16:22.322Z,2.50
2022-11-09T13:21:45.591Z,2.40
2022-11-09T13:27:11.948Z,2.60
2022-11-09T13:32:35.331Z,2.57
2022-11-09T13:37:59.169Z,2.30
2022-11-09T13:43:28.329Z,2.50
2022-11-09T13:48:54.237Z,2.43
2022-11-09T13:54:32.802Z,2.23
2022-11-09T13:59:58.751Z,2.53
2022-11-09T14:05:34.689Z,2.50
2022-11-09T14:11:33.363Z,2.70
2022-11-09T14:17:22.502Z,2.20
2022-11-09T14:22:45.951Z,2.77
2022-11-09T14:28:27.468Z,2.43
2022-11-09T14:34:01.995Z,4.90
2022-11-09T14:39:35.443Z,2.40
2022-11-09T14:44:58.955Z,2.43
2022-11-09T14:50:25.895Z,2.70
2022-11-09T14:55:52.053Z,2.90
2022-11-09T15:01:24.304Z,3.07
2022-11-09T15:06:51.407Z,2.87
2022-11-09T15:12:16.868Z,3.90
2022-11-09T15:17:42.028Z,3.13
2022-11-09T15:23:23.733Z,3.63
2022-11-09T15:28:49.455Z,3.43
2022-11-09T15:34:18.931Z,3.40
2022-11-09T15:39:42.492Z,3.53
2022-11-09T15:45:06.548Z,4.20
2022-11-09T15:50:30.197Z,3.27
2022-11-09T15:55:53.651Z,3.90
2022-11-09T16:01:17.721Z,3.90
2022-11-09T16:06:46.325Z,3.80
2022-11-09T16:12:11.474Z,3.70
2022-11-09T16:17:34.995Z,4.07
2022-11-09T16:22:58.674Z,3.10
2022-11-09T16:28:24.029Z,3.53
2022-11-09T16:33:47.704Z,4.10
2022-11-09T16:39:13.570Z,3.87
2022-11-09T16:44:42.520Z,3.67
2022-11-09T16:50:06.521Z,3.73
2022-11-09T16:55:30.070Z,3.93
2022-11-09T17:01:10.587Z,3.57
2022-11-09T17:06:19.090Z,3.40
2022-11-09T17:11:43.018Z,4.10
2022-11-09T17:17:06.597Z,4.20
2022-11-09T17:22:31.215Z,3.73
2022-11-09T17:27:54.536Z,4.23
2022-11-09T17:33:18.309Z,4.47
2022-11-09T17:38:42.404Z,4.10
2022-11-09T17:44:06.116Z,4.00
2022-11-09T17:49:29.393Z,4.63
2022-11-09T17:54:53.037Z,3.60
2022-11-09T18:00:17.600Z,3.93
2022-11-09T18:05:42.927Z,4.03
2022-11-09T18:11:06.190Z,3.47
2022-11-09T18:16:29.242Z,4.20
2022-11-09T18:21:52.390Z,3.87
2022-11-09T18:27:15.631Z,3.23
2022-11-09T18:32:39.354Z,3.10
2022-11-09T18:38:02.902Z,2.87
2022-11-09T18:43:26.450Z,3.33
2022-11-09T18:48:54.609Z,3.10
2022-11-09T18:54:18.128Z,2.90
2022-11-09T18:59:42.662Z,2.87
2022-11-09T19:05:08.379Z,2.70
2022-11-09T19:10:31.943Z,3.80
2022-11-09T19:15:58.417Z,3.90
2022-11-09T19:21:41.321Z,3.97
2022-11-09T19:27:04.783Z,4.10
2022-11-09T19:32:28.355Z,3.60
2022-11-09T19:37:52.056Z,3.50
2022-11-09T19:43:15.607Z,2.97
2022-11-09T19:48:40.738Z,3.03
2022-11-09T19:54:06.083Z,2.87
2022-11-09T19:59:29.722Z,3.23
2022-11-09T20:04:54.600Z,2.70
2022-11-09T20:10:18.361Z,2.27
2022-11-09T20:15:41.888Z,2.40
2022-11-09T20:21:09.871Z,2.83
2022-11-09T20:26:33.642Z,3.13
2022-11-09T20:31:56.786Z,3.13
2022-11-09T20:37:20.501Z,4.00
2022-11-09T20:42:43.792Z,4.10
2022-11-09T20:48:19.319Z,4.43
2022-11-09T20:53:32.844Z,4.30
2022-11-09T20:58:56.439Z,4.03
2022-11-09T21:04:20.155Z,3.43
2022-11-09T21:09:43.656Z,3.93
2022-11-09T21:15:07.760Z,3.30
2022-11-09T21:20:31.002Z,3.20
2022-11-09T21:26:13.947Z,3.80
2022-11-09T21:31:37.185Z,3.10
2022-11-09T21:37:00.537Z,3.40
2022-11-09T21:42:23.944Z,2.80
2022-11-09T21:47:47.352Z,3.40
2022-11-09T21:53:10.944Z,3.40
2022-11-09T21:58:34.863Z,3.93
2022-11-09T22:03:58.764Z,3.53
2022-11-09T22:09:22.058Z,3.50
2022-11-09T22:15:03.604Z,3.47
2022-11-09T22:20:45.004Z,3.70
2022-11-09T22:26:09.187Z,4.23
2022-11-09T22:31:32.816Z,4.10
2022-11-09T22:36:56.538Z,3.73
2022-11-09T22:42:19.883Z,4.00
2022-11-09T22:47:43.336Z,4.20
2022-11-09T22:53:06.541Z,3.67
2022-11-09T22:58:30.802Z,4.13
2022-11-09T23:03:54.380Z,4.47
2022-11-09T23:09:18.020Z,4.10
2022-11-09T23:14:59.251Z,3.90
2022-11-09T23:20:23.506Z,4.23
2022-11-09T23:25:57.880Z,3.60
2022-11-09T23:31:25.938Z,3.07
2022-11-09T23:36:49.341Z,3.33
2022-11-09T23:42:12.655Z,2.93
2022-11-09T23:47:36.184Z,3.20
2022-11-09T23:53:01.256Z,3.17
2022-11-09T23:58:24.775Z,3.80
